createdAt,value
2019-06-26T00:00:49.842Z,21.00
2019-06-26T00:03:21.662Z,21.00
2019-06-26T00:05:53.209Z,21.10
2019-06-26T00:08:24.600Z,21.00
2019-06-26T00:10:55.840Z,21.00
2019-06-26T00:13:26.738Z,21.00
2019-06-26T00:15:52.365Z,20.90
2019-06-26T00:18:19.196Z,21.00
2019-06-26T00:20:48.295Z,21.00
2019-06-26T00:23:16.578Z,20.90
2019-06-26T00:25:43.603Z,20.90
2019-06-26T00:28:12.101Z,20.90
2019-06-26T00:30:41.222Z,20.90
2019-06-26T00:33:08.971Z,20.90
2019-06-26T00:35:38.665Z,20.80
2019-06-26T00:38:06.186Z,20.80
2019-06-26T00:40:34.493Z,20.80
2019-06-26T00:43:02.786Z,20.80
2019-06-26T00:45:37.049Z,20.70
2019-06-26T00:48:03.433Z,20.70
2019-06-26T00:50:29.748Z,20.70
2019-06-26T00:52:57.428Z,20.60
2019-06-26T00:55:24.755Z,20.60
2019-06-26T00:57:51.111Z,20.50
2019-06-26T01:00:25.217Z,20.60
2019-06-26T01:02:51.603Z,20.50
2019-06-26T01:05:18.027Z,20.40
2019-06-26T01:07:46.391Z,20.40
2019-06-26T01:10:12.735Z,20.30
2019-06-26T01:12:41.103Z,20.20
2019-06-26T01:15:08.611Z,20.20
2019-06-26T01:17:37.107Z,20.00
2019-06-26T01:20:05.405Z,20.00
2019-06-26T01:22:31.877Z,20.00
2019-06-26T01:24:58.358Z,19.90
2019-06-26T01:27:24.761Z,19.90
2019-06-26T01:29:54.981Z,19.90
2019-06-26T01:32:30.526Z,19.80
2019-06-26T01:35:04.383Z,19.70
2019-06-26T01:37:35.115Z,19.60
2019-06-26T01:40:08.929Z,19.60
2019-06-26T01:42:35.423Z,19.60
2019-06-26T01:45:12.563Z,19.50
2019-06-26T01:47:42.756Z,19.50
2019-06-26T01:50:09.352Z,19.60
2019-06-26T01:52:37.559Z,19.50
2019-06-26T01:55:06.819Z,19.50
2019-06-26T01:57:35.816Z,19.50
2019-06-26T02:00:12.824Z,19.40
2019-06-26T02:02:41.767Z,19.40
2019-06-26T02:05:10.124Z,19.50
2019-06-26T02:07:39.601Z,19.50
2019-06-26T02:10:10.358Z,19.40
2019-06-26T02:12:45.169Z,19.40
2019-06-26T02:15:16.550Z,19.30
2019-06-26T02:17:43.022Z,19.30
2019-06-26T02:20:12.745Z,19.30
2019-06-26T02:22:39.171Z,19.30
2019-06-26T02:25:05.751Z,19.30
2019-06-26T02:27:33.014Z,19.30
2019-06-26T02:30:07.064Z,19.30
2019-06-26T02:32:37.573Z,19.30
2019-06-26T02:35:10.219Z,19.30
2019-06-26T02:37:42.313Z,19.30
2019-06-26T02:40:12.502Z,19.20
2019-06-26T02:42:39.025Z,19.20
2019-06-26T02:45:05.786Z,19.30
2019-06-26T02:47:32.146Z,19.30
2019-06-26T02:50:03.255Z,19.40
2019-06-26T02:52:36.896Z,19.40
2019-06-26T02:55:06.163Z,19.40
2019-06-26T02:57:34.366Z,19.40
2019-06-26T03:00:03.875Z,19.40
2019-06-26T03:02:32.728Z,19.50
2019-06-26T03:05:03.533Z,19.50
2019-06-26T03:07:27.207Z,19.50
2019-06-26T03:09:55.479Z,19.50
2019-06-26T03:12:23.763Z,19.60
2019-06-26T03:15:07.519Z,19.60
2019-06-26T03:17:21.856Z,19.60
2019-06-26T03:19:51.040Z,19.70
2019-06-26T03:22:20.432Z,19.80
2019-06-26T03:24:48.440Z,19.80
2019-06-26T03:27:20.529Z,19.90
2019-06-26T03:29:48.837Z,19.90
2019-06-26T03:32:15.210Z,19.90
2019-06-26T03:34:43.292Z,20.00
2019-06-26T03:37:12.563Z,20.00
2019-06-26T03:39:46.969Z,20.00
2019-06-26T03:42:10.978Z,20.10
2019-06-26T03:44:37.355Z,20.10
2019-06-26T03:47:05.638Z,20.20
2019-06-26T03:49:32.010Z,20.20
2019-06-26T03:51:59.495Z,20.20
2019-06-26T03:54:30.650Z,20.30
2019-06-26T03:56:57.105Z,20.40
2019-06-26T03:59:23.417Z,20.60
2019-06-26T04:01:49.821Z,20.60
2019-06-26T04:04:16.222Z,20.60
2019-06-26T04:06:43.359Z,20.60
2019-06-26T04:09:12.538Z,20.70
2019-06-26T04:11:37.850Z,20.70
2019-06-26T04:23:50.235Z,21.20
2019-06-26T04:26:14.364Z,21.20
2019-06-26T04:28:42.801Z,21.20
2019-06-26T04:31:10.854Z,21.40
2019-06-26T04:33:39.445Z,21.50
2019-06-26T04:36:09.759Z,21.60
2019-06-26T04:38:36.184Z,21.70
2019-06-26T04:41:06.268Z,21.80
2019-06-26T04:43:34.600Z,21.90
2019-06-26T04:46:02.908Z,22.00
2019-06-26T04:48:33.105Z,22.20
2019-06-26T04:51:01.515Z,22.30
2019-06-26T04:53:27.861Z,22.50
2019-06-26T04:55:56.168Z,22.60
2019-06-26T04:58:28.633Z,22.70
2019-06-26T05:00:56.070Z,22.90
2019-06-26T05:03:24.354Z,23.00
2019-06-26T05:05:51.932Z,23.20
2019-06-26T05:08:22.400Z,23.40
2019-06-26T05:10:54.974Z,23.50
2019-06-26T05:13:24.395Z,23.70
2019-06-26T05:15:53.562Z,24.00
2019-06-26T05:18:19.957Z,24.10
2019-06-26T05:20:48.782Z,24.40
2019-06-26T05:23:16.441Z,24.70
2019-06-26T05:25:45.354Z,25.00
2019-06-26T05:28:15.813Z,25.30
2019-06-26T05:30:42.491Z,25.50
2019-06-26T05:33:08.960Z,25.70
2019-06-26T05:35:45.663Z,26.00
2019-06-26T05:38:12.037Z,26.20
2019-06-26T05:40:43.860Z,26.40
2019-06-26T05:43:12.454Z,26.60
2019-06-26T05:45:38.798Z,26.60
2019-06-26T05:48:08.030Z,26.80
2019-06-26T05:50:37.432Z,27.00
2019-06-26T05:53:05.755Z,27.30
2019-06-26T05:55:33.190Z,27.40
2019-06-26T05:58:01.513Z,27.60
2019-06-26T06:00:29.870Z,27.70
2019-06-26T06:02:56.896Z,26.40
2019-06-26T06:05:28.053Z,28.10
2019-06-26T06:07:56.296Z,28.30
2019-06-26T06:10:24.590Z,28.60
2019-06-26T06:12:52.877Z,28.70
2019-06-26T06:15:24.125Z,28.80
2019-06-26T06:17:52.404Z,28.90
2019-06-26T06:20:33.339Z,29.00
2019-06-26T06:22:59.762Z,29.20
2019-06-26T06:25:26.122Z,29.50
2019-06-26T06:27:52.507Z,29.70
2019-06-26T06:30:29.469Z,29.80
2019-06-26T06:32:57.751Z,30.00
2019-06-26T06:35:24.135Z,30.20
2019-06-26T06:37:51.646Z,30.40
2019-06-26T06:40:21.227Z,30.50
2019-06-26T06:42:47.595Z,30.70
2019-06-26T06:45:16.304Z,31.00
2019-06-26T06:47:45.640Z,31.20
2019-06-26T06:50:13.752Z,31.70
2019-06-26T06:52:42.358Z,32.00
2019-06-26T06:55:08.847Z,32.20
2019-06-26T06:57:35.326Z,32.70
2019-06-26T07:00:01.729Z,33.40
2019-06-26T07:02:28.461Z,34.20
2019-06-26T07:04:55.860Z,35.00
2019-06-26T07:07:29.039Z,35.60
2019-06-26T07:09:57.285Z,36.20
2019-06-26T07:12:24.608Z,36.60
2019-06-26T07:14:53.839Z,36.90
2019-06-26T07:17:21.401Z,36.80
2019-06-26T07:19:50.713Z,36.50
2019-06-26T07:22:19.804Z,36.50
2019-06-26T07:24:46.284Z,36.80
2019-06-26T07:27:13.919Z,37.00
2019-06-26T07:29:42.214Z,37.80
2019-06-26T07:32:08.644Z,37.90
2019-06-26T07:34:36.119Z,38.30
2019-06-26T07:37:02.649Z,38.50
2019-06-26T07:39:28.980Z,38.60
2019-06-26T07:41:57.264Z,39.70
2019-06-26T07:44:23.633Z,38.90
2019-06-26T07:46:50.086Z,38.90
2019-06-26T07:49:18.351Z,39.70
2019-06-26T07:51:44.720Z,39.30
2019-06-26T07:54:11.094Z,39.30
2019-06-26T07:56:37.542Z,39.70
2019-06-26T07:59:03.970Z,39.30
2019-06-26T08:01:30.415Z,40.20
2019-06-26T08:03:56.895Z,40.40
2019-06-26T08:06:25.192Z,39.80
2019-06-26T08:08:56.722Z,40.20
2019-06-26T08:11:25.060Z,40.90
2019-06-26T08:13:51.475Z,41.10
2019-06-26T08:16:21.692Z,41.00
2019-06-26T08:18:50.017Z,40.70
2019-06-26T08:21:16.459Z,40.90
2019-06-26T08:23:45.577Z,40.70
2019-06-26T08:26:11.974Z,40.90
2019-06-26T08:28:39.296Z,40.70
2019-06-26T08:31:07.036Z,40.40
2019-06-26T08:33:35.285Z,40.50
2019-06-26T08:36:03.563Z,41.20
2019-06-26T08:38:33.417Z,41.20
2019-06-26T08:40:59.813Z,41.80
2019-06-26T08:43:26.470Z,41.70
2019-06-26T08:45:56.111Z,41.60
2019-06-26T08:48:38.771Z,41.90
2019-06-26T08:50:58.287Z,42.10
2019-06-26T08:53:26.018Z,43.10
2019-06-26T08:55:54.242Z,44.20
2019-06-26T08:58:24.447Z,43.40
2019-06-26T09:00:53.088Z,43.20
2019-06-26T09:03:27.356Z,42.70
2019-06-26T09:05:55.672Z,42.10
2019-06-26T09:08:22.131Z,41.60
2019-06-26T09:10:48.527Z,41.90
2019-06-26T09:13:14.899Z,41.40
2019-06-26T09:15:41.326Z,41.40
2019-06-26T09:18:07.680Z,41.50
2019-06-26T09:20:40.520Z,41.70
2019-06-26T09:23:07.511Z,41.40
2019-06-26T09:25:34.141Z,41.00
2019-06-26T09:28:00.546Z,41.20
2019-06-26T09:30:27.040Z,41.00
2019-06-26T09:32:53.476Z,41.50
2019-06-26T09:35:20.896Z,41.90
2019-06-26T09:37:47.275Z,42.80
2019-06-26T09:40:13.788Z,43.10
2019-06-26T09:42:40.168Z,43.20
2019-06-26T09:45:07.089Z,43.10
2019-06-26T09:47:33.518Z,42.90
2019-06-26T09:49:59.984Z,43.10
2019-06-26T09:52:26.370Z,43.00
2019-06-26T09:54:53.005Z,43.00
2019-06-26T09:57:19.547Z,42.50
2019-06-26T09:59:45.949Z,42.30
2019-06-26T10:02:12.398Z,42.70
2019-06-26T10:04:38.783Z,42.70
2019-06-26T10:07:05.188Z,42.30
2019-06-26T10:09:31.611Z,42.00
2019-06-26T10:11:57.946Z,42.20
2019-06-26T10:14:24.310Z,42.20
2019-06-26T10:16:50.640Z,41.70
2019-06-26T10:19:17.120Z,41.70
2019-06-26T10:21:43.448Z,41.00
2019-06-26T10:24:09.842Z,41.40
2019-06-26T10:26:37.195Z,41.30
2019-06-26T10:29:03.590Z,41.30
2019-06-26T10:31:30.136Z,41.40
2019-06-26T10:33:56.571Z,41.90
2019-06-26T10:36:24.701Z,42.90
2019-06-26T10:38:51.137Z,43.00
2019-06-26T10:41:17.544Z,42.60
2019-06-26T10:43:43.959Z,42.40
2019-06-26T10:46:10.314Z,42.40
2019-06-26T10:48:36.689Z,42.30
2019-06-26T10:51:03.094Z,42.60
2019-06-26T10:53:29.552Z,42.80
2019-06-26T10:55:56.032Z,43.10
2019-06-26T10:58:22.452Z,43.10
2019-06-26T11:00:49.997Z,42.50
2019-06-26T11:03:16.381Z,42.50
2019-06-26T11:05:42.782Z,42.60
2019-06-26T11:08:09.152Z,42.50
2019-06-26T11:10:35.546Z,42.50
2019-06-26T11:13:02.366Z,42.80
2019-06-26T11:15:28.923Z,42.70
2019-06-26T11:17:55.272Z,43.30
2019-06-26T11:20:21.657Z,43.70
2019-06-26T11:22:48.029Z,43.90
2019-06-26T11:25:18.264Z,43.90
2019-06-26T11:27:44.685Z,43.10
2019-06-26T11:30:11.487Z,42.90
2019-06-26T11:32:38.008Z,43.30
2019-06-26T11:35:07.464Z,43.20
2019-06-26T11:37:33.942Z,43.30
2019-06-26T11:40:00.251Z,44.20
2019-06-26T11:42:26.628Z,44.40
2019-06-26T11:44:53.018Z,44.40
2019-06-26T11:47:19.384Z,44.00
2019-06-26T11:49:58.999Z,43.20
2019-06-26T11:52:14.115Z,43.30
2019-06-26T11:54:40.473Z,43.30
2019-06-26T11:57:06.853Z,43.70
2019-06-26T11:59:33.302Z,44.00
2019-06-26T12:01:59.769Z,44.10
2019-06-26T12:04:26.194Z,44.90
2019-06-26T12:06:52.640Z,45.20
2019-06-26T12:09:19.120Z,44.50
2019-06-26T12:11:45.527Z,43.60
2019-06-26T12:14:14.555Z,43.80
2019-06-26T12:16:43.677Z,44.20
2019-06-26T12:19:10.177Z,43.60
2019-06-26T12:21:36.735Z,44.00
2019-06-26T12:24:03.107Z,43.80
2019-06-26T12:26:29.487Z,43.80
2019-06-26T12:28:56.866Z,43.80
2019-06-26T12:31:23.321Z,42.80
2019-06-26T12:33:49.725Z,42.10
2019-06-26T12:36:16.338Z,41.70
2019-06-26T12:38:44.650Z,41.70
2019-06-26T12:41:11.045Z,42.80
2019-06-26T12:43:39.352Z,43.30
2019-06-26T12:46:08.555Z,43.60
2019-06-26T12:48:35.009Z,43.20
2019-06-26T12:51:01.512Z,43.20
2019-06-26T12:53:27.912Z,43.60
2019-06-26T12:55:54.321Z,44.00
2019-06-26T12:58:20.694Z,43.90
2019-06-26T13:00:47.137Z,43.50
2019-06-26T13:03:13.554Z,43.00
2019-06-26T13:05:40.000Z,42.60
2019-06-26T13:08:06.405Z,42.40
2019-06-26T13:10:48.532Z,41.90
2019-06-26T13:13:02.063Z,40.90
2019-06-26T13:15:30.400Z,40.10
2019-06-26T13:17:57.122Z,39.90
2019-06-26T13:20:25.462Z,39.60
2019-06-26T13:22:51.806Z,39.60
2019-06-26T13:25:18.165Z,40.00
2019-06-26T13:27:44.534Z,40.00
2019-06-26T13:30:12.520Z,39.80
2019-06-26T13:32:41.761Z,39.60
2019-06-26T13:35:13.878Z,39.70
2019-06-26T13:37:42.164Z,39.50
2019-06-26T13:40:10.756Z,39.20
2019-06-26T13:42:37.184Z,38.90
2019-06-26T13:45:06.114Z,38.70
2019-06-26T13:47:32.618Z,39.30
2019-06-26T13:49:58.977Z,40.30
2019-06-26T13:52:27.296Z,40.90
2019-06-26T13:54:57.331Z,40.60
2019-06-26T13:57:28.857Z,40.30
2019-06-26T13:59:55.255Z,40.30
2019-06-26T14:02:21.607Z,40.30
2019-06-26T14:04:47.998Z,40.50
2019-06-26T14:07:14.421Z,40.50
2019-06-26T14:09:40.855Z,40.70
2019-06-26T14:12:07.181Z,40.60
2019-06-26T14:14:52.713Z,41.20
2019-06-26T14:17:04.620Z,41.00
2019-06-26T14:19:31.776Z,41.00
2019-06-26T14:22:03.415Z,41.10
2019-06-26T14:24:37.631Z,41.00
2019-06-26T14:27:04.033Z,40.70
2019-06-26T14:29:30.425Z,40.50
2019-06-26T14:32:01.261Z,40.20
2019-06-26T14:34:28.358Z,39.60
2019-06-26T14:37:00.253Z,39.10
2019-06-26T14:39:26.668Z,38.90
2019-06-26T14:41:57.261Z,38.70
2019-06-26T14:44:25.592Z,38.30
2019-06-26T14:46:56.396Z,38.00
2019-06-26T14:49:23.271Z,37.80
2019-06-26T14:51:49.929Z,37.70
2019-06-26T14:54:16.356Z,37.60
2019-06-26T14:56:42.765Z,37.40
2019-06-26T14:59:15.116Z,37.30
2019-06-26T15:01:45.317Z,37.40
2019-06-26T15:04:15.602Z,37.50
2019-06-26T15:06:42.038Z,37.60
2019-06-26T15:09:10.355Z,37.50
2019-06-26T15:11:36.734Z,37.30
2019-06-26T15:14:05.029Z,37.30
2019-06-26T15:16:33.335Z,37.30
2019-06-26T15:19:02.315Z,37.30
2019-06-26T15:21:31.588Z,37.20
2019-06-26T15:23:57.957Z,37.00
2019-06-26T15:26:24.358Z,37.00
2019-06-26T15:28:52.706Z,37.00
2019-06-26T15:31:19.115Z,37.00
2019-06-26T15:33:48.563Z,36.90
2019-06-26T15:36:17.421Z,36.90
2019-06-26T15:38:46.264Z,36.80
2019-06-26T15:41:15.769Z,36.80
2019-06-26T15:43:44.044Z,36.80
2019-06-26T15:46:13.382Z,36.80
2019-06-26T15:48:42.609Z,36.70
2019-06-26T15:51:09.186Z,36.80
2019-06-26T15:53:38.978Z,36.80
2019-06-26T15:56:14.675Z,36.80
2019-06-26T15:58:38.755Z,36.70
2019-06-26T16:01:07.100Z,36.60
2019-06-26T16:03:34.753Z,36.40
2019-06-26T16:06:01.073Z,36.30
2019-06-26T16:08:27.430Z,36.10
2019-06-26T16:10:53.845Z,36.10
2019-06-26T16:13:20.244Z,35.90
2019-06-26T16:15:48.685Z,35.90
2019-06-26T16:18:19.862Z,35.90
2019-06-26T16:20:50.080Z,35.90
2019-06-26T16:23:18.437Z,35.90
2019-06-26T16:25:48.483Z,35.80
2019-06-26T16:28:20.216Z,35.80
2019-06-26T16:30:48.598Z,35.80
2019-06-26T16:33:15.920Z,35.80
2019-06-26T16:35:44.543Z,35.80
2019-06-26T16:38:10.901Z,35.60
2019-06-26T16:40:37.364Z,35.60
2019-06-26T16:43:08.370Z,35.40
2019-06-26T16:45:36.683Z,35.30
2019-06-26T16:48:11.405Z,35.20
2019-06-26T16:50:37.805Z,35.10
2019-06-26T16:53:04.219Z,35.10
2019-06-26T16:55:30.619Z,35.00
2019-06-26T16:57:58.930Z,34.90
2019-06-26T17:00:27.199Z,34.90
2019-06-26T17:02:57.120Z,34.80
2019-06-26T17:05:25.747Z,34.80
2019-06-26T17:07:55.984Z,34.70
2019-06-26T17:10:23.960Z,34.70
2019-06-26T17:12:53.353Z,34.70
2019-06-26T17:15:20.817Z,34.60
2019-06-26T17:17:50.611Z,34.50
2019-06-26T17:20:20.459Z,34.40
2019-06-26T17:22:47.447Z,34.40
2019-06-26T17:25:17.653Z,34.30
2019-06-26T17:27:47.892Z,34.30
2019-06-26T17:30:16.294Z,34.20
2019-06-26T17:32:42.724Z,34.00
2019-06-26T17:35:11.214Z,33.90
2019-06-26T17:37:37.654Z,33.80
2019-06-26T17:40:07.416Z,33.70
2019-06-26T17:42:33.689Z,33.60
2019-06-26T17:45:00.177Z,33.50
2019-06-26T17:47:32.769Z,33.40
2019-06-26T17:50:02.993Z,33.40
2019-06-26T17:52:34.478Z,33.30
2019-06-26T17:55:03.786Z,33.20
2019-06-26T17:57:33.497Z,33.10
2019-06-26T18:00:03.154Z,33.10
2019-06-26T18:02:33.120Z,33.20
2019-06-26T18:05:01.536Z,33.10
2019-06-26T18:07:33.123Z,33.20
2019-06-26T18:10:02.291Z,33.00
2019-06-26T18:12:30.592Z,33.00
2019-06-26T18:14:58.924Z,32.90
2019-06-26T18:17:29.183Z,32.70
2019-06-26T18:20:00.366Z,32.60
2019-06-26T18:22:29.424Z,32.50
2019-06-26T18:24:57.795Z,32.30
2019-06-26T18:27:28.750Z,32.20
2019-06-26T18:29:57.082Z,32.10
2019-06-26T18:32:25.392Z,32.10
2019-06-26T18:34:57.932Z,31.90
2019-06-26T18:37:23.870Z,31.80
2019-06-26T18:39:51.323Z,31.50
2019-06-26T18:42:19.047Z,31.30
2019-06-26T18:44:45.328Z,31.10
2019-06-26T18:47:16.498Z,31.00
2019-06-26T18:49:49.414Z,30.80
2019-06-26T18:52:17.739Z,30.70
2019-06-26T18:54:50.635Z,30.50
2019-06-26T18:57:22.991Z,30.40
2019-06-26T18:59:51.296Z,30.20
2019-06-26T19:02:22.477Z,30.20
2019-06-26T19:04:54.033Z,30.10
2019-06-26T19:07:21.200Z,30.00
2019-06-26T19:09:49.493Z,29.80
2019-06-26T19:12:17.836Z,29.70
2019-06-26T19:14:46.186Z,29.60
2019-06-26T19:17:14.388Z,29.50
2019-06-26T19:19:40.835Z,29.50
2019-06-26T19:22:10.317Z,29.40
2019-06-26T19:24:36.702Z,29.10
2019-06-26T19:27:09.772Z,29.00
2019-06-26T19:29:38.885Z,28.70
2019-06-26T19:32:07.423Z,28.40
2019-06-26T19:34:35.086Z,28.30
2019-06-26T19:37:03.381Z,28.00
2019-06-26T19:39:29.722Z,28.20
2019-06-26T19:41:56.127Z,28.30
2019-06-26T19:44:24.526Z,28.20
2019-06-26T19:46:53.801Z,28.20
2019-06-26T19:49:22.170Z,28.00
2019-06-26T19:51:53.570Z,27.90
2019-06-26T19:54:27.720Z,27.70
2019-06-26T19:56:52.499Z,27.50
2019-06-26T19:59:25.086Z,27.50
2019-06-26T20:01:51.609Z,27.50
2019-06-26T20:04:22.009Z,27.50
2019-06-26T20:06:48.639Z,27.40
2019-06-26T20:09:18.923Z,27.30
2019-06-26T20:11:47.253Z,27.40
2019-06-26T20:23:55.962Z,27.50
2019-06-26T20:26:26.166Z,27.50
2019-06-26T20:28:54.521Z,27.50
2019-06-26T20:31:21.920Z,27.50
2019-06-26T20:33:52.198Z,27.50
2019-06-26T20:39:36.789Z,27.50
2019-06-26T20:42:05.064Z,27.60
2019-06-26T22:31:15.513Z,25.30
2019-06-26T22:33:41.921Z,25.20
2019-06-26T22:36:08.302Z,25.10
2019-06-26T22:38:34.706Z,25.10
2019-06-26T22:41:01.584Z,25.00
2019-06-26T22:43:28.017Z,25.00
2019-06-26T22:45:54.439Z,25.00
2019-06-26T22:48:20.870Z,24.90
2019-06-26T22:50:53.962Z,24.80
2019-06-26T22:53:22.061Z,24.70
2019-06-26T22:55:48.460Z,24.60
2019-06-26T22:58:21.381Z,24.50
2019-06-26T23:00:48.780Z,24.50
2019-06-26T23:03:15.161Z,24.30
2019-06-26T23:05:41.535Z,24.30
2019-06-26T23:08:07.916Z,24.30
2019-06-26T23:10:34.280Z,24.20
2019-06-26T23:13:00.630Z,24.20
2019-06-26T23:15:27.033Z,24.10
2019-06-26T23:17:54.239Z,24.10
2019-06-26T23:20:20.621Z,24.10
2019-06-26T23:22:47.078Z,24.00
2019-06-26T23:25:14.585Z,24.00
2019-06-26T23:27:40.979Z,23.90
2019-06-26T23:30:16.214Z,23.80
2019-06-26T23:32:42.594Z,23.80
2019-06-26T23:35:08.974Z,23.80
2019-06-26T23:37:35.363Z,23.70
2019-06-26T23:40:02.506Z,23.60
2019-06-26T23:42:28.907Z,23.60
2019-06-26T23:44:55.338Z,23.60
2019-06-26T23:47:21.723Z,23.50
2019-06-26T23:49:48.127Z,23.50
2019-06-26T23:52:14.559Z,23.40
2019-06-26T23:54:40.968Z,23.40
2019-06-26T23:57:07.375Z,23.30
2019-06-26T23:59:33.797Z,23.30
